MAPA DE AEROPUERTO

INFORMACIÓN METAR y TAF

METAR FOR LEIB
ADDS - METARS form results

(1328 UTC 26 February 2021)
Data provider http://aviationweather.gov/metar/data/
 
METAR text: LEIB 261300Z 08008KT 050V130 9999 FEW024 SCT027 16/08 Q1029 NOSIG
Conditions at: LEIB (IBIZA/ES CODOLA , ES) observed 1300 UTC 26 February 2021
Temperature: 16.0°C (61°F)
Dewpoint: 8.0°C (46°F) [RH = 59%]
Pressure (altimeter): 30.38 inches Hg (1029.0 mb)
Winds: from the E (80 degrees) at 9 MPH (8 knots; 4.1 m/s)
Visibility: 6 or more miles (10+ km)
Ceiling: at least 12,000 feet AGL
Clouds: few clouds at 2400 feet AGL
scattered clouds at 2700 feet AGL
Weather: no significant weather observed at this time

METAR text: LEIB 261230Z 10006KT 080V140 9999 FEW024 SCT027 15/08 Q1029 NOSIG
Conditions at: LEIB (IBIZA/ES CODOLA , ES) observed 1230 UTC 26 February 2021
Temperature: 15.0°C (59°F)
Dewpoint: 8.0°C (46°F) [RH = 63%]
Pressure (altimeter): 30.38 inches Hg (1029.0 mb)
Winds: from the E (100 degrees) at 7 MPH (6 knots; 3.1 m/s)
Visibility: 6 or more miles (10+ km)
Ceiling: at least 12,000 feet AGL
Clouds: few clouds at 2400 feet AGL
scattered clouds at 2700 feet AGL
Weather: no significant weather observed at this time

Forecast for: LEIB (IBIZA/ES CODOLA , ES)
Text: TAF LEIB 260800Z 2609/2709 06010KT 9999 BKN020 TX17/2612Z TN09/2706Z
Forecast period: 0900 to 1800 UTC 26 February 2021
Forecast type: FROM: standard forecast or significant change
Winds: from the ENE (60 degrees) at 12 MPH (10 knots; 5.1 m/s)
Visibility: 6 or more miles (10+ km)
Ceiling: 2000 feet AGL
Clouds: broken clouds at 2000 feet AGL
Weather: no significant weather forecast for this period
Text: BECMG 2618/2620 36006KT
Forecast period: 1800 UTC 26 February 2021 to 0900 UTC 27 February 2021
Forecast type: BECOMING: Conditions expected to become as follows by 2000 UTC 26 February 2021
Winds: from the N (360 degrees) at 7 MPH (6 knots; 3.1 m/s)
Visibility: 6 or more miles (10+ km)
Ceiling: 2000 feet AGL
Clouds: broken clouds at 2000 feet AGL
Weather: no significant weather forecast for this period
Text: PROB40
Forecast period: 2200 UTC 26 February 2021 to 0600 UTC 27 February 2021
Forecast type: TEMPORARY: The following changes expected for less than half the time period
Visibility: 1.86 miles (2.99 km)
Ceiling: 1000 feet AGL
Clouds: broken clouds at 1000 feet AGL
Weather: BR  (mist)